Time;durP1;ratioP1;P1;durP2;ratioP2;P2;SDS_P1;SDS_P2;PMS_P1;PMS_P2;Temp;Humidity;BMP_temperature;BMP_pressure;BME280_temperature;BME280_humidity;BME280_pressure;Samples;Min_cycle;Max_cycle;Signal;HPM_P1;HPM_P2
2021/10/29 00:00:36;;;;;;;364.52;198.35;;;;;;;;;;5075309;28;20052;-69
2021/10/29 00:03:03;;;;;;;372.38;206.38;;;;;;;;;;5075185;28;20154;-69
2021/10/29 00:05:30;;;;;;;389.88;217.98;;;;;;;;;;5075489;28;20158;-70
2021/10/29 00:07:56;;;;;;;375.70;207.55;;;;;;;;;;5075371;28;20097;-70
2021/10/29 00:10:23;;;;;;;367.38;203.48;;;;;;;;;;5074898;28;20094;-70
2021/10/29 00:12:50;;;;;;;369.77;203.27;;;;;;;;;;5075225;28;20089;-70
2021/10/29 00:15:16;;;;;;;369.80;196.18;;;;;;;;;;5075275;28;20056;-70
2021/10/29 00:17:45;;;;;;;374.25;200.02;;;;;;;;;;5057188;28;20028;-70
2021/10/29 00:20:11;;;;;;;359.70;194.63;;;;;;;;;;5074910;28;20100;-71
2021/10/29 00:22:38;;;;;;;367.48;195.00;;;;;;;;;;5075190;28;20060;-72
2021/10/29 00:25:05;;;;;;;295.58;156.77;;;;;;;;;;5075138;28;20029;-71
2021/10/29 00:27:31;;;;;;;276.85;148.00;;;;;;;;;;5057276;28;20064;-69
2021/10/29 00:29:58;;;;;;;261.45;138.00;;;;;;;;;;5057057;28;20050;-71
2021/10/29 00:32:24;;;;;;;273.02;146.88;;;;;;;;;;5074870;28;20491;-70
2021/10/29 00:34:51;;;;;;;293.45;155.75;;;;;;;;;;5074875;28;20025;-71
2021/10/29 00:37:17;;;;;;;272.63;142.50;;;;;;;;;;5074844;28;20028;-70
2021/10/29 00:39:43;;;;;;;294.88;158.50;;;;;;;;;;5056773;28;20028;-70
2021/10/29 00:42:10;;;;;;;256.45;136.38;;;;;;;;;;5074722;28;20111;-70
2021/10/29 00:44:36;;;;;;;262.48;142.95;;;;;;;;;;5073764;28;20024;-69
2021/10/29 00:47:02;;;;;;;273.95;139.82;;;;;;;;;;5074326;28;20082;-71
2021/10/29 00:49:29;;;;;;;335.35;131.88;;;;;;;;;;5074597;28;20090;-71
2021/10/29 00:51:55;;;;;;;403.38;135.05;;;;;;;;;;5056461;28;20132;-71
2021/10/29 00:54:22;;;;;;;387.48;135.15;;;;;;;;;;5074510;28;20024;-70
2021/10/29 00:56:49;;;;;;;326.67;128.25;;;;;;;;;;5056408;28;20128;-71
2021/10/29 00:59:18;;;;;;;383.20;137.63;;;;;;;;;;5074432;28;20458;-70
2021/10/29 01:01:48;;;;;;;303.23;131.77;;;;;;;;;;5074393;28;20047;-72
2021/10/29 01:04:15;;;;;;;274.63;132.20;;;;;;;;;;5056306;28;20465;-72
2021/10/29 01:06:42;;;;;;;321.95;142.40;;;;;;;;;;5056539;28;20115;-71
2021/10/29 01:09:08;;;;;;;274.98;129.27;;;;;;;;;;5044372;28;20056;-71
2021/10/29 01:11:34;;;;;;;278.73;131.48;;;;;;;;;;5032935;28;20097;-72
2021/10/29 01:14:01;;;;;;;243.45;124.28;;;;;;;;;;5034194;28;20025;-71
2021/10/29 01:16:27;;;;;;;205.32;111.28;;;;;;;;;;5034152;28;20021;-71
2021/10/29 01:18:53;;;;;;;193.30;104.28;;;;;;;;;;5034076;28;20075;-71
2021/10/29 01:21:20;;;;;;;180.65;100.93;;;;;;;;;;5034362;28;20128;-71
2021/10/29 01:23:46;;;;;;;173.85;96.18;;;;;;;;;;5033797;28;20474;-71
2021/10/29 01:26:14;;;;;;;159.82;89.43;;;;;;;;;;5033956;28;20028;-70
2021/10/29 01:28:40;;;;;;;167.45;93.00;;;;;;;;;;5033910;28;20029;-72
2021/10/29 01:31:07;;;;;;;171.15;93.85;;;;;;;;;;5034192;28;20029;-72
2021/10/29 01:33:33;;;;;;;157.32;86.07;;;;;;;;;;5033788;28;20037;-70
2021/10/29 01:36:00;;;;;;;160.00;81.50;;;;;;;;;;5033798;28;20099;-70
2021/10/29 01:38:33;;;;;;;146.32;83.93;;;;;;;;;;5033744;28;20068;-71
2021/10/29 01:41:00;;;;;;;160.13;85.90;;;;;;;;;;5033774;28;20040;-71
2021/10/29 01:43:27;;;;;;;146.73;84.65;;;;;;;;;;5033649;28;20493;-69
2021/10/29 01:45:54;;;;;;;164.60;87.63;;;;;;;;;;5033668;28;20133;-70
2021/10/29 01:48:20;;;;;;;206.20;92.95;;;;;;;;;;5033581;28;20022;-70
2021/10/29 01:50:46;;;;;;;174.05;87.75;;;;;;;;;;5033319;28;20506;-70
2021/10/29 01:53:13;;;;;;;193.50;108.25;;;;;;;;;;5031845;28;20033;-70
2021/10/29 01:55:40;;;;;;;222.95;125.22;;;;;;;;;;5032322;28;20387;-70
2021/10/29 01:58:06;;;;;;;239.70;129.73;;;;;;;;;;5033466;28;20021;-70
2021/10/29 02:00:33;;;;;;;296.00;145.93;;;;;;;;;;5033224;28;20553;-71
2021/10/29 02:02:59;;;;;;;276.80;145.73;;;;;;;;;;5033365;28;20034;-70
2021/10/29 02:05:25;;;;;;;255.57;143.05;;;;;;;;;;5032015;28;20370;-70
2021/10/29 02:07:52;;;;;;;239.85;133.88;;;;;;;;;;5031962;28;20053;-70
2021/10/29 02:10:19;;;;;;;284.48;130.98;;;;;;;;;;5068480;28;20056;-70
2021/10/29 02:12:45;;;;;;;282.25;131.07;;;;;;;;;;5073205;28;20037;-71
2021/10/29 02:15:11;;;;;;;278.45;128.98;;;;;;;;;;5073080;28;20052;-70
2021/10/29 02:17:37;;;;;;;315.92;139.07;;;;;;;;;;5073129;28;20089;-72
2021/10/29 02:20:04;;;;;;;247.75;129.35;;;;;;;;;;5073140;28;20031;-71
2021/10/29 02:22:30;;;;;;;261.42;132.68;;;;;;;;;;5073091;28;20028;-71
2021/10/29 02:24:57;;;;;;;254.48;130.43;;;;;;;;;;5073035;28;20020;-72
2021/10/29 02:27:23;;;;;;;232.77;125.78;;;;;;;;;;5072989;28;20056;-72
2021/10/29 02:29:49;;;;;;;275.95;127.05;;;;;;;;;;5072989;28;20028;-71
2021/10/29 02:32:15;;;;;;;247.00;123.60;;;;;;;;;;5073149;28;20072;-70
2021/10/29 02:34:42;;;;;;;241.63;122.50;;;;;;;;;;5072946;28;20025;-73
2021/10/29 02:37:08;;;;;;;227.82;119.78;;;;;;;;;;5054901;28;20519;-72
2021/10/29 02:39:38;;;;;;;264.92;124.63;;;;;;;;;;5072860;28;20036;-72
2021/10/29 02:42:05;;;;;;;249.23;117.80;;;;;;;;;;5072914;28;20086;-71
2021/10/29 02:44:31;;;;;;;298.67;120.90;;;;;;;;;;5072843;28;20380;-71
2021/10/29 02:46:59;;;;;;;312.33;118.63;;;;;;;;;;5072803;28;20032;-71
2021/10/29 02:49:26;;;;;;;330.77;122.93;;;;;;;;;;5072797;28;20021;-71
2021/10/29 02:51:52;;;;;;;331.50;117.60;;;;;;;;;;5054742;28;20056;-70
2021/10/29 02:54:18;;;;;;;351.20;118.50;;;;;;;;;;5072697;28;20122;-72
2021/10/29 02:56:44;;;;;;;386.38;124.95;;;;;;;;;;5054715;28;20047;-71
2021/10/29 02:59:11;;;;;;;396.17;129.48;;;;;;;;;;5072688;28;20025;-70
2021/10/29 03:01:37;;;;;;;434.05;124.85;;;;;;;;;;5072715;28;20033;-70
2021/10/29 03:04:04;;;;;;;477.73;126.38;;;;;;;;;;5072351;28;20408;-71
2021/10/29 03:06:30;;;;;;;372.35;120.50;;;;;;;;;;5073251;28;20025;-71
2021/10/29 03:08:56;;;;;;;367.23;118.38;;;;;;;;;;5076221;28;20049;-71
2021/10/29 03:11:23;;;;;;;313.38;114.43;;;;;;;;;;5076489;28;20024;-70
2021/10/29 03:13:50;;;;;;;336.80;113.85;;;;;;;;;;5076374;28;20025;-71
2021/10/29 03:16:16;;;;;;;389.38;122.88;;;;;;;;;;5076403;28;20028;-70
2021/10/29 03:18:43;;;;;;;445.30;121.53;;;;;;;;;;5076379;28;20031;-71
2021/10/29 03:21:10;;;;;;;422.60;127.50;;;;;;;;;;5058285;28;20025;-70
2021/10/29 03:23:38;;;;;;;435.73;125.88;;;;;;;;;;5076303;28;20039;-70
2021/10/29 03:26:04;;;;;;;401.55;126.70;;;;;;;;;;5058253;28;20025;-71
2021/10/29 03:28:31;;;;;;;434.58;125.63;;;;;;;;;;5058112;28;20086;-71
2021/10/29 03:30:57;;;;;;;371.38;117.72;;;;;;;;;;5076195;28;20024;-70
2021/10/29 03:33:23;;;;;;;422.48;122.15;;;;;;;;;;5075934;28;20039;-69
2021/10/29 03:35:49;;;;;;;367.30;114.65;;;;;;;;;;5075728;28;20039;-70
2021/10/29 03:41:03;;;;;;;311.42;112.15;;;;;;;;;;5075690;28;20085;-69
2021/10/29 03:43:44;;;;;;;317.20;112.50;;;;;;;;;;5075829;28;20032;-69
2021/10/29 03:46:20;;;;;;;275.40;103.85;;;;;;;;;;5075882;28;20475;-70
2021/10/29 03:49:11;;;;;;;246.20;102.05;;;;;;;;;;5075862;28;20024;-70
2021/10/29 03:51:45;;;;;;;179.25;91.13;;;;;;;;;;5057814;28;20059;-70
2021/10/29 03:54:19;;;;;;;164.25;88.32;;;;;;;;;;5057698;28;20120;-70
2021/10/29 03:56:52;;;;;;;155.02;86.65;;;;;;;;;;5057693;28;20028;-69
2021/10/29 03:59:18;;;;;;;160.70;89.28;;;;;;;;;;5075627;28;20024;-69
2021/10/29 04:01:45;;;;;;;173.30;88.43;;;;;;;;;;5075336;28;20023;-71
2021/10/29 04:04:11;;;;;;;160.93;90.53;;;;;;;;;;5075218;28;20366;-71
2021/10/29 04:06:37;;;;;;;166.25;86.63;;;;;;;;;;5075453;28;20020;-68
2021/10/29 04:09:04;;;;;;;143.05;80.45;;;;;;;;;;5075098;28;20135;-71
2021/10/29 04:11:36;;;;;;;152.45;82.78;;;;;;;;;;5075386;28;20157;-70
2021/10/29 04:14:05;;;;;;;147.38;84.25;;;;;;;;;;5057278;28;20033;-71
2021/10/29 04:16:36;;;;;;;155.98;83.18;;;;;;;;;;5057278;28;20029;-70
2021/10/29 04:19:02;;;;;;;169.88;88.20;;;;;;;;;;5074238;28;20028;-69
2021/10/29 04:21:28;;;;;;;182.07;87.22;;;;;;;;;;5075540;28;20028;-66
2021/10/29 04:23:55;;;;;;;183.57;93.32;;;;;;;;;;5057170;28;20072;-66
2021/10/29 04:26:21;;;;;;;202.07;97.45;;;;;;;;;;5075121;28;20043;-68
2021/10/29 04:28:53;;;;;;;251.15;96.63;;;;;;;;;;5074754;28;20386;-67
2021/10/29 04:31:22;;;;;;;;;;;;;;;;;;5075486;28;20117;-67
2021/10/29 04:33:49;;;;;;;229.27;96.85;;;;;;;;;;5074898;28;19927;-66
2021/10/29 04:36:15;;;;;;;230.75;98.35;;;;;;;;;;5075157;28;20104;-66
2021/10/29 04:38:42;;;;;;;302.42;98.47;;;;;;;;;;5074844;28;20455;-66
2021/10/29 04:41:08;;;;;;;311.88;96.43;;;;;;;;;;5074476;28;20795;-66
2021/10/29 04:43:34;;;;;;;302.27;96.57;;;;;;;;;;5074484;28;20032;-67
2021/10/29 04:46:00;;;;;;;240.02;90.32;;;;;;;;;;5074697;28;20033;-67
2021/10/29 04:48:26;;;;;;;198.00;87.43;;;;;;;;;;5056677;28;20138;-68
2021/10/29 04:50:53;;;;;;;212.13;88.40;;;;;;;;;;5074314;28;20129;-70
2021/10/29 04:53:19;;;;;;;189.15;84.63;;;;;;;;;;5074554;28;20032;-70
2021/10/29 04:55:45;;;;;;;278.83;105.05;;;;;;;;;;5056810;28;20384;-69
2021/10/29 04:58:11;;;;;;;306.95;105.90;;;;;;;;;;5056411;28;20028;-69
2021/10/29 05:00:37;;;;;;;267.50;100.15;;;;;;;;;;5056417;28;20021;-70
2021/10/29 05:03:06;;;;;;;285.38;95.75;;;;;;;;;;5056404;28;20064;-70
2021/10/29 05:05:32;;;;;;;277.10;92.53;;;;;;;;;;5074281;28;20024;-71
2021/10/29 05:07:58;;;;;;;206.93;87.35;;;;;;;;;;5074285;28;20033;-70
2021/10/29 05:10:25;;;;;;;255.40;92.65;;;;;;;;;;5076077;28;20138;-70
2021/10/29 05:12:51;;;;;;;302.60;106.35;;;;;;;;;;5100155;28;20122;-69
2021/10/29 05:15:17;;;;;;;240.23;92.85;;;;;;;;;;5114300;28;20434;-70
2021/10/29 05:17:44;;;;;;;202.85;85.50;;;;;;;;;;5102939;28;20466;-69
2021/10/29 05:20:11;;;;;;;231.43;97.20;;;;;;;;;;5075948;28;20031;-68
2021/10/29 05:22:37;;;;;;;292.88;99.60;;;;;;;;;;5094144;28;20036;-70
2021/10/29 05:25:03;;;;;;;290.42;98.40;;;;;;;;;;5094137;28;20020;-69
2021/10/29 05:27:29;;;;;;;262.02;101.57;;;;;;;;;;5093588;28;20103;-69
2021/10/29 05:29:56;;;;;;;300.23;107.07;;;;;;;;;;5093440;28;20385;-69
2021/10/29 05:32:22;;;;;;;276.27;103.43;;;;;;;;;;5075583;28;20111;-69
2021/10/29 05:34:48;;;;;;;253.77;98.88;;;;;;;;;;5093805;28;20055;-69
2021/10/29 05:37:14;;;;;;;239.07;96.30;;;;;;;;;;5075512;28;20024;-68
2021/10/29 05:39:40;;;;;;;237.70;97.85;;;;;;;;;;5093431;28;20044;-68
2021/10/29 05:42:06;;;;;;;222.05;97.05;;;;;;;;;;5093834;28;20103;-68
2021/10/29 05:44:33;;;;;;;230.50;98.78;;;;;;;;;;5075554;28;20020;-68
2021/10/29 05:46:59;;;;;;;251.18;100.95;;;;;;;;;;5075396;28;20177;-70
2021/10/29 05:49:25;;;;;;;211.95;101.07;;;;;;;;;;5075242;28;20055;-69
2021/10/29 05:51:52;;;;;;;288.42;116.22;;;;;;;;;;5093466;28;20376;-68
2021/10/29 05:56:58;;;;;;;358.92;130.77;;;;;;;;;;5093517;28;20035;-68
2021/10/29 05:59:24;;;;;;;332.30;126.32;;;;;;;;;;5093023;28;20475;-71
2021/10/29 06:01:51;;;;;;;332.48;120.25;;;;;;;;;;5093374;28;20032;-70
2021/10/29 06:04:17;;;;;;;267.30;111.28;;;;;;;;;;5091496;28;20055;-68
2021/10/29 06:06:44;;;;;;;283.90;114.38;;;;;;;;;;5075215;28;20028;-69
2021/10/29 06:09:10;;;;;;;305.65;114.07;;;;;;;;;;5090898;28;20070;-69
2021/10/29 06:11:37;;;;;;;274.65;114.47;;;;;;;;;;5075251;28;20034;-71
2021/10/29 06:14:03;;;;;;;269.50;112.88;;;;;;;;;;5075246;28;20036;-67
2021/10/29 06:16:30;;;;;;;270.17;110.05;;;;;;;;;;5093186;28;20786;-69
2021/10/29 06:18:56;;;;;;;204.68;97.47;;;;;;;;;;5075286;28;20460;-71
2021/10/29 06:21:34;;;;;;;226.98;103.22;;;;;;;;;;5074951;28;20036;-69
2021/10/29 06:24:04;;;;;;;212.77;93.57;;;;;;;;;;5093588;28;20077;-69
2021/10/29 06:26:40;;;;;;;224.00;93.95;;;;;;;;;;5093523;28;20024;-68
2021/10/29 06:29:06;;;;;;;194.10;92.43;;;;;;;;;;5093271;28;20383;-68
2021/10/29 06:31:33;;;;;;;194.05;93.10;;;;;;;;;;5089081;28;20406;-70
2021/10/29 06:33:59;;;;;;;195.93;90.03;;;;;;;;;;5092473;28;20061;-69
2021/10/29 06:36:25;;;;;;;233.85;95.03;;;;;;;;;;5113436;28;20019;-69
2021/10/29 06:38:51;;;;;;;203.18;94.68;;;;;;;;;;5113060;28;20072;-68
2021/10/29 06:41:18;;;;;;;209.93;96.38;;;;;;;;;;5113556;28;20534;-71
2021/10/29 06:44:07;;;;;;;211.93;97.53;;;;;;;;;;5117711;28;20069;-71
2021/10/29 07:00:25;;;;;;;226.77;93.70;;;;;;;;;;5117484;28;20028;-68
2021/10/29 07:41:10;;;;;;;159.48;85.57;;;;;;;;;;5117297;28;20477;-71
2021/10/29 07:43:49;;;;;;;215.70;89.78;;;;;;;;;;5098620;28;20059;-69
2021/10/29 07:46:16;;;;;;;178.38;82.90;;;;;;;;;;5116637;28;20388;-70
2021/10/29 07:48:44;;;;;;;221.70;89.90;;;;;;;;;;5116418;28;20097;-69
2021/10/29 07:51:10;;;;;;;183.80;88.85;;;;;;;;;;5098073;28;20114;-69
2021/10/29 07:53:37;;;;;;;195.23;86.60;;;;;;;;;;5116379;28;20398;-69
2021/10/29 07:56:04;;;;;;;171.38;89.93;;;;;;;;;;5097950;28;20059;-69
2021/10/29 07:58:31;;;;;;;205.40;90.43;;;;;;;;;;5116286;28;20023;-69
2021/10/29 08:00:58;;;;;;;196.38;97.30;;;;;;;;;;5097841;28;20600;-69
2021/10/29 08:03:24;;;;;;;168.90;95.85;;;;;;;;;;5116040;28;20024;-69
2021/10/29 08:05:50;;;;;;;156.88;94.18;;;;;;;;;;5116054;28;20020;-69
2021/10/29 08:08:18;;;;;;;178.25;95.65;;;;;;;;;;5097495;28;20051;-68
2021/10/29 08:10:44;;;;;;;170.25;97.35;;;;;;;;;;5116171;28;20024;-68
2021/10/29 08:13:11;;;;;;;167.30;97.75;;;;;;;;;;5115746;28;20096;-71
2021/10/29 08:15:37;;;;;;;200.63;99.68;;;;;;;;;;5097615;28;20039;-70
2021/10/29 08:18:05;;;;;;;166.93;99.82;;;;;;;;;;5084256;28;20503;-69
2021/10/29 08:20:31;;;;;;;177.45;103.90;;;;;;;;;;5091969;28;20111;-69
2021/10/29 08:22:58;;;;;;;187.68;106.53;;;;;;;;;;5115592;28;20210;-70
2021/10/29 08:25:24;;;;;;;209.00;105.72;;;;;;;;;;5115666;28;20107;-69
2021/10/29 08:27:51;;;;;;;197.50;107.35;;;;;;;;;;5115129;28;20353;-70
2021/10/29 08:30:17;;;;;;;199.18;104.40;;;;;;;;;;5112200;28;20039;-70
2021/10/29 08:32:46;;;;;;;184.35;103.13;;;;;;;;;;5115263;28;20039;-69
2021/10/29 08:35:13;;;;;;;179.23;99.80;;;;;;;;;;5097064;28;20024;-68
2021/10/29 08:37:41;;;;;;;181.45;100.30;;;;;;;;;;5097139;28;20027;-68
2021/10/29 08:40:08;;;;;;;188.88;108.15;;;;;;;;;;5097106;28;20028;-68
2021/10/29 08:42:35;;;;;;;192.90;112.20;;;;;;;;;;5115246;28;20067;-68
2021/10/29 08:45:02;;;;;;;187.60;109.32;;;;;;;;;;5115212;28;20047;-69
2021/10/29 08:47:31;;;;;;;240.48;131.15;;;;;;;;;;5096538;28;20023;-70
2021/10/29 08:49:57;;;;;;;202.80;118.10;;;;;;;;;;5114951;28;20050;-70
2021/10/29 08:52:24;;;;;;;231.65;128.73;;;;;;;;;;5096796;28;20027;-69
2021/10/29 08:54:51;;;;;;;217.55;122.97;;;;;;;;;;5115440;28;20413;-69
2021/10/29 08:57:17;;;;;;;210.60;118.30;;;;;;;;;;5114873;28;20099;-69
2021/10/29 08:59:46;;;;;;;225.10;126.13;;;;;;;;;;5114973;28;20076;-69
2021/10/29 09:02:30;;;;;;;246.20;132.95;;;;;;;;;;5114894;28;20375;-70
2021/10/29 09:07:41;;;;;;;248.70;138.63;;;;;;;;;;5098612;28;20024;-69
2021/10/29 09:32:21;;;;;;;233.43;133.38;;;;;;;;;;5093642;28;20035;-70
2021/10/29 09:34:56;;;;;;;209.02;124.20;;;;;;;;;;5093389;28;20032;-69
2021/10/29 09:37:22;;;;;;;207.93;124.63;;;;;;;;;;5092561;28;20023;-70
2021/10/29 09:39:53;;;;;;;191.82;117.85;;;;;;;;;;5093983;28;20031;-69
2021/10/29 09:42:21;;;;;;;184.70;112.70;;;;;;;;;;5087627;28;20488;-69
2021/10/29 09:44:50;;;;;;;187.20;115.20;;;;;;;;;;5071774;28;20025;-66
2021/10/29 09:47:19;;;;;;;188.18;111.90;;;;;;;;;;5072979;28;20345;-68
2021/10/29 09:50:04;;;;;;;194.93;115.20;;;;;;;;;;5073104;28;20013;-69
2021/10/29 09:52:48;;;;;;;182.32;109.00;;;;;;;;;;5072016;28;20059;-69
2021/10/29 09:56:01;;;;;;;178.50;107.75;;;;;;;;;;5071815;28;20020;-68
2021/10/29 09:58:03;;;;;;;176.23;107.82;;;;;;;;;;5066886;28;20032;-67
2021/10/29 10:00:32;;;;;;;177.25;106.72;;;;;;;;;;5073397;28;20032;-68
2021/10/29 10:02:58;;;;;;;176.63;105.43;;;;;;;;;;5073270;28;20024;-70
2021/10/29 10:05:25;;;;;;;168.13;105.93;;;;;;;;;;5073326;28;20025;-68
2021/10/29 10:07:51;;;;;;;174.35;108.60;;;;;;;;;;5073039;28;20020;-68
2021/10/29 10:10:18;;;;;;;169.90;105.38;;;;;;;;;;5073331;28;20527;-67
2021/10/29 10:12:46;;;;;;;164.75;104.38;;;;;;;;;;5073127;28;20072;-67
2021/10/29 10:15:13;;;;;;;171.57;106.00;;;11.90;99.90;;;;;;5071488;28;20420;-68
2021/10/29 10:17:39;;;;;;;162.77;102.75;;;12.20;99.90;;;;;;5070482;28;20459;-70
2021/10/29 10:20:07;;;;;;;164.98;102.47;;;12.40;99.90;;;;;;5072746;28;20104;-68
2021/10/29 10:22:41;;;;;;;166.90;102.22;;;13.20;99.90;;;;;;5072439;28;20028;-69
2021/10/29 10:25:17;;;;;;;154.73;97.60;;;13.80;99.70;;;;;;5072459;28;20497;-67
2021/10/29 10:47:04;;;;;;;147.57;93.70;;;;;;;;;;5072422;28;20024;-69
2021/10/29 10:49:53;;;;;;;134.52;86.43;;;17.00;82.20;;;;;;5071025;28;20017;-69
2021/10/29 10:52:31;;;;;;;124.30;81.22;;;15.80;85.80;;;;;;5055272;28;20033;-70
2021/10/29 10:55:15;;;;;;;133.05;84.35;;;15.90;87.50;;;;;;5071957;28;20024;-70
2021/10/29 10:58:02;;;;;;;117.05;76.60;;;16.50;88.70;;;;;;5071851;28;20376;-68
2021/10/29 11:00:42;;;;;;;122.22;75.70;;;17.40;83.70;;;;;;5072118;28;20028;-69
2021/10/29 11:03:26;;;;;;;116.38;75.60;;;18.90;79.30;;;;;;5071145;28;20082;-69
2021/10/29 11:10:56;;;;;;;;;;;19.70;74.70;;;;;;5072915;28;20039;-68
2021/10/29 11:13:23;;;;;;;115.90;71.20;;;19.50;73.80;;;;;;5072373;28;20014;-70
2021/10/29 11:16:03;;;;;;;105.50;66.50;;;19.80;73.80;;;;;;5072101;28;20028;-66
2021/10/29 11:18:35;;;;;;;107.38;68.07;;;18.10;75.70;;;;;;5072348;28;20055;-69
2021/10/29 11:21:21;;;;;;;109.78;68.50;;;16.40;82.40;;;;;;5072044;28;20038;-70
2021/10/29 11:24:08;;;;;;;109.32;69.50;;;15.60;86.90;;;;;;5070875;28;20028;-69
2021/10/29 11:26:39;;;;;;;112.13;69.93;;;15.00;88.80;;;;;;5070623;28;20048;-67
2021/10/29 11:29:06;;;;;;;;;;;14.70;90.70;;;;;;5074061;28;20358;-67
2021/10/29 11:31:47;;;;;;;121.57;68.22;;;14.50;91.10;;;;;;5074708;28;20349;-70
2021/10/29 11:34:16;;;;;;;103.35;64.38;;;15.40;90.60;;;;;;5074475;28;20385;-67
2021/10/29 11:36:53;;;;;;;108.38;66.10;;;16.40;86.50;;;;;;5074315;28;20035;-67
2021/10/29 11:39:22;;;;;;;105.13;64.00;;;15.80;87.80;;;;;;5075433;28;20020;-67
2021/10/29 11:41:53;;;;;;;101.90;64.70;;;15.80;87.30;;;;;;5074405;28;20025;-68
2021/10/29 11:44:22;;;;;;;101.25;66.65;;;15.40;88.80;;;;;;5074577;28;20376;-68
2021/10/29 11:46:49;;;;;;;102.88;63.90;;;15.10;90.10;;;;;;5075718;28;20044;-68
2021/10/29 11:49:18;;;;;;;226.15;130.75;;;14.60;91.40;;;;;;5075528;28;20078;-68
2021/10/29 11:51:45;;;;;;;120.72;74.78;;;14.50;91.50;;;;;;5075280;28;20059;-67
2021/10/29 11:54:29;;;;;;;105.80;65.78;;;14.20;92.30;;;;;;5075349;28;20555;-72
2021/10/29 11:57:17;;;;;;;101.10;62.85;;;14.00;92.60;;;;;;5075511;28;20032;-70
2021/10/29 12:07:29;;;;;;;98.85;62.17;;;13.90;93.90;;;;;;5095324;28;20530;-67
2021/10/29 12:10:09;;;;;;;101.13;63.40;;;14.00;94.20;;;;;;5091879;28;20528;-68
2021/10/29 12:12:38;;;;;;;100.50;61.55;;;14.00;94.40;;;;;;5073762;28;20071;-66
2021/10/29 12:15:26;;;;;;;103.28;62.42;;;13.90;94.80;;;;;;5075024;28;20488;-67
2021/10/29 12:20:35;;;;;;;97.68;60.42;;;14.00;94.40;;;;;;5075154;28;20470;-71
2021/10/29 12:23:15;;;;;;;101.88;62.55;;;14.10;94.90;;;;;;5075077;28;20020;-69
2021/10/29 12:28:17;;;;;;;94.00;57.95;;;14.40;96.50;;;;;;5075016;28;20416;-71
2021/10/29 12:31:10;;;;;;;98.53;61.28;;;14.10;95.00;;;;;;5074925;28;20024;-71
2021/10/29 12:34:08;;;;;;;111.70;66.25;;;14.20;95.00;;;;;;5074593;28;20067;-71
2021/10/29 12:53:28;;;;;;;104.95;61.45;;;14.30;94.70;;;;;;5073972;28;20098;-71
2021/10/29 13:01:56;;;;;;;461.75;251.82;;;14.50;94.40;;;;;;5073387;28;20104;-69
2021/10/29 13:04:33;;;;;;;110.57;65.43;;;14.50;94.50;;;;;;5070958;28;20025;-70
2021/10/29 13:07:02;;;;;;;103.50;61.33;;;14.80;94.10;;;;;;5073545;28;20435;-70
2021/10/29 13:09:31;;;;;;;100.78;60.25;;;15.10;93.60;;;;;;5073683;28;20056;-69
2021/10/29 13:12:14;;;;;;;91.95;56.75;;;15.50;92.90;;;;;;5073853;28;20024;-68
2021/10/29 13:14:52;;;;;;;99.85;62.58;;;15.20;93.40;;;;;;5073522;28;20074;-70
2021/10/29 13:17:25;;;;;;;110.72;65.07;;;15.00;93.70;;;;;;5073492;28;20132;-69
2021/10/29 13:36:06;;;;;;;132.85;81.47;;;14.30;95.80;;;;;;5073447;28;20031;-67
2021/10/29 14:00:22;;;;;;;136.25;79.60;;;14.20;97.00;;;;;;5050649;28;20065;-71
2021/10/29 14:30:08;;;;;;;164.80;98.82;;;13.80;99.60;;;;;;5050411;28;20067;-71
2021/10/29 14:32:48;;;;;;;171.05;99.05;;;13.80;99.90;;;;;;5051029;28;20041;-70
2021/10/29 14:35:40;;;;;;;182.60;105.00;;;13.70;99.90;;;;;;5052902;28;20096;-71
2021/10/29 14:43:25;;;;;;;152.68;91.10;;;13.50;99.90;;;;;;5052785;28;19912;-71
2021/10/29 15:29:13;;;;;;;178.23;95.97;;;;;;;;;;5116511;28;20023;-73
2021/10/29 15:31:59;;;;;;;159.52;93.78;;;;;;;;;;5098392;28;20378;-72
2021/10/29 15:42:49;;;;;;;229.90;133.43;;;;;;;;;;5095227;28;20545;-71
2021/10/29 15:45:34;;;;;;;208.63;118.15;;;;;;;;;;5077339;28;20024;-73
2021/10/29 15:48:06;;;;;;;215.40;121.63;;;;;;;;;;5095753;28;20022;-72
2021/10/29 15:50:33;;;;;;;196.82;115.57;;;;;;;;;;5077657;28;20116;-72
2021/10/29 15:53:00;;;;;;;234.45;128.40;;;;;;;;;;5095438;28;20119;-72
2021/10/29 15:58:46;;;;;;;232.38;134.52;;;;;;;;;;5095335;28;20050;-71
2021/10/29 16:01:04;;;;;;;229.65;132.88;;;;;;;;;;5081942;28;20472;-71
2021/10/29 16:17:15;;;;;;;245.45;134.52;;;;;;;;;;5115545;28;20063;-68
2021/10/29 16:19:43;;;;;;;340.50;191.80;;;;;;;;;;5115891;28;20538;-69
2021/10/29 16:22:17;;;;;;;312.40;176.30;;;;;;;;;;5114041;28;20455;-68
2021/10/29 16:24:52;;;;;;;257.70;145.93;;;;;;;;;;5095036;28;20020;-70
2021/10/29 16:27:19;;;;;;;229.88;130.25;;;;;;;;;;5094605;28;20429;-69
2021/10/29 16:29:48;;;;;;;212.68;122.07;;;;;;;;;;5090047;28;20586;-69
2021/10/29 16:32:18;;;;;;;216.68;122.30;;;;;;;;;;5099069;28;20016;-66
2021/10/29 16:34:44;;;;;;;275.50;151.68;;;;;;;;;;5115543;28;20475;-67
2021/10/29 16:37:11;;;;;;;287.85;153.10;;;;;;;;;;5115541;28;20034;-69
2021/10/29 16:39:37;;;;;;;252.00;141.10;;;;;;;;;;5097030;28;20026;-71
2021/10/29 16:42:04;;;;;;;298.80;155.60;;;;;;;;;;5097075;28;20074;-67
2021/10/29 16:44:30;;;;;;;272.77;149.90;;;;;;;;;;5096703;28;20024;-71
2021/10/29 16:46:56;;;;;;;267.77;141.70;;;;;;;;;;5115346;28;20024;-70
2021/10/29 16:49:23;;;;;;;270.05;146.88;;;;;;;;;;5115229;28;20020;-70
2021/10/29 16:51:50;;;;;;;237.77;131.50;;;;;;;;;;5096383;28;20118;-70
2021/10/29 16:54:16;;;;;;;262.75;148.20;;;;;;;;;;5114933;28;20039;-70
2021/10/29 16:56:42;;;;;;;239.45;132.95;;;;;;;;;;5114854;28;20019;-70
2021/10/29 16:59:08;;;;;;;250.80;139.63;;;;;;;;;;5115412;28;20075;-69
2021/10/29 17:01:35;;;;;;;250.50;140.07;;;;;;;;;;5096289;28;20047;-69
2021/10/29 17:04:01;;;;;;;291.05;160.82;;;;;;;;;;5096094;28;20035;-70
2021/10/29 17:06:27;;;;;;;267.88;144.13;;;;;;;;;;5114348;28;20027;-70
2021/10/29 17:08:53;;;;;;;265.80;145.68;;;;;;;;;;5114569;28;20047;-69
2021/10/29 17:11:20;;;;;;;249.73;137.65;;;;;;;;;;5114877;28;20455;-69
2021/10/29 17:13:46;;;;;;;236.80;130.10;;;;;;;;;;5114689;28;20036;-70
2021/10/29 17:16:12;;;;;;;227.98;130.77;;;;;;;;;;5096174;28;20062;-70
2021/10/29 17:18:38;;;;;;;231.57;124.55;;;;;;;;;;5114706;28;20030;-69
2021/10/29 17:21:06;;;;;;;227.98;124.07;;;;;;;;;;5114810;28;20398;-71
2021/10/29 17:23:32;;;;;;;238.07;128.10;;;;;;;;;;5096044;28;20023;-70
2021/10/29 17:25:59;;;;;;;238.77;130.25;;;;;;;;;;5095843;28;20097;-70
2021/10/29 17:28:25;;;;;;;248.57;131.18;;;;;;;;;;5096321;28;20464;-71
2021/10/29 17:30:51;;;;;;;212.13;117.25;;;;;;;;;;5114206;28;20016;-71
2021/10/29 17:33:18;;;;;;;188.85;107.18;;;;;;;;;;5095227;28;20023;-69
2021/10/29 17:35:44;;;;;;;200.98;112.07;;;;;;;;;;5113387;28;20034;-70
2021/10/29 17:38:11;;;;;;;206.18;111.75;;;;;;;;;;5114086;28;20019;-71
2021/10/29 17:40:37;;;;;;;199.95;112.70;;;;;;;;;;5114315;28;20019;-72
2021/10/29 17:43:04;;;;;;;204.68;115.47;;;;;;;;;;5113725;28;20506;-69
2021/10/29 17:45:30;;;;;;;188.38;108.18;;;;;;;;;;5095544;28;20063;-71
2021/10/29 17:47:57;;;;;;;147.38;80.07;;;;;;;;;;5114185;28;20019;-71
2021/10/29 17:50:23;;;;;;;210.57;122.38;;;;;;;;;;5095577;28;20020;-71
2021/10/29 17:52:52;;;;;;;185.73;109.65;;;;;;;;;;5113803;28;20031;-69
2021/10/29 17:55:18;;;;;;;188.15;107.32;;;;;;;;;;5114064;28;20102;-69
2021/10/29 17:57:45;;;;;;;199.30;113.25;;;;;;;;;;5095345;28;20019;-69
2021/10/29 18:00:12;;;;;;;210.43;115.70;;;;;;;;;;5082681;28;20154;-69
2021/10/29 18:02:38;;;;;;;205.30;110.68;;;;;;;;;;5092985;28;20073;-69
2021/10/29 18:05:05;;;;;;;219.30;123.65;;;;;;;;;;5075104;28;20028;-69
2021/10/29 18:07:34;;;;;;;225.55;122.22;;;;;;;;;;5075131;28;20016;-69
2021/10/29 18:10:00;;;;;;;248.13;135.05;;;;;;;;;;5093099;28;20047;-72
2021/10/29 18:12:26;;;;;;;304.30;164.35;;;;;;;;;;5074724;28;20115;-69
2021/10/29 18:14:54;;;;;;;244.75;131.68;;;;;;;;;;5092883;28;20044;-70
2021/10/29 18:17:20;;;;;;;231.48;129.98;;;;;;;;;;5074907;28;20043;-68
2021/10/29 18:19:46;;;;;;;254.60;140.00;;;;;;;;;;5092879;28;20052;-69
2021/10/29 18:22:14;;;;;;;300.52;157.93;;;;;;;;;;5092800;28;20024;-70
2021/10/29 18:24:40;;;;;;;322.10;170.15;;;;;;;;;;5093131;28;20081;-69
2021/10/29 18:27:08;;;;;;;323.75;177.63;;;;;;;;;;5092912;28;20035;-70
2021/10/29 18:29:35;;;;;;;319.75;174.95;;;;;;;;;;5092864;28;20020;-70